sensor_id;sensor_type;location;lat;lon;timestamp;pressure;altitude;pressure_sealevel;temperature;humidity
30302;BME280;17111;52.130;5.028;2023-02-03T00:01:48;102555.47;;;16.12;51.55
30302;BME280;17111;52.130;5.028;2023-02-03T00:04:15;102560.69;;;16.14;51.37
30302;BME280;17111;52.130;5.028;2023-02-03T00:06:42;102573.22;;;16.13;51.33
30302;BME280;17111;52.130;5.028;2023-02-03T00:09:09;102575.91;;;16.13;51.83
30302;BME280;17111;52.130;5.028;2023-02-03T00:11:36;102581.25;;;16.13;52.30
30302;BME280;17111;52.130;5.028;2023-02-03T00:14:02;102576.75;;;16.14;52.57
30302;BME280;17111;52.130;5.028;2023-02-03T00:16:30;102579.53;;;16.12;51.51
30302;BME280;17111;52.130;5.028;2023-02-03T00:18:57;102575.91;;;16.13;51.65
30302;BME280;17111;52.130;5.028;2023-02-03T00:21:24;102565.19;;;16.13;52.29
30302;BME280;17111;52.130;5.028;2023-02-03T00:23:50;102565.19;;;16.13;51.44
30302;BME280;17111;52.130;5.028;2023-02-03T00:26:17;102567.88;;;16.13;51.26
30302;BME280;17111;52.130;5.028;2023-02-03T00:28:44;102575.03;;;16.13;52.28
30302;BME280;17111;52.130;5.028;2023-02-03T00:31:15;102584.78;;;16.14;52.44
30302;BME280;17111;52.130;5.028;2023-02-03T00:33:42;102573.13;;;16.15;51.42
30302;BME280;17111;52.130;5.028;2023-02-03T00:36:09;102574.94;;;16.14;51.77
30302;BME280;17111;52.130;5.028;2023-02-03T00:38:36;102571.28;;;16.15;52.41
30302;BME280;17111;52.130;5.028;2023-02-03T00:41:03;102587.34;;;16.15;51.54
30302;BME280;17111;52.130;5.028;2023-02-03T00:43:29;102588.19;;;16.16;52.41
30302;BME280;17111;52.130;5.028;2023-02-03T00:45:56;102573.03;;;16.16;52.21
30302;BME280;17111;52.130;5.028;2023-02-03T00:48:22;102586.41;;;16.16;52.15
30302;BME280;17111;52.130;5.028;2023-02-03T00:50:49;102592.63;;;16.17;52.26
30302;BME280;17111;52.130;5.028;2023-02-03T00:53:15;102570.34;;;16.16;52.05
30302;BME280;17111;52.130;5.028;2023-02-03T00:55:42;102569.38;;;16.17;52.44
30302;BME280;17111;52.130;5.028;2023-02-03T00:58:09;102569.38;;;16.17;52.27
30302;BME280;17111;52.130;5.028;2023-02-03T01:00:36;102569.38;;;16.17;51.48
30302;BME280;17111;52.130;5.028;2023-02-03T01:03:03;102563.06;;;16.18;52.55
30302;BME280;17111;52.130;5.028;2023-02-03T01:05:29;102563.19;;;16.17;51.39
30302;BME280;17111;52.130;5.028;2023-02-03T01:07:56;102560.50;;;16.17;51.90
30302;BME280;17111;52.130;5.028;2023-02-03T01:10:22;102561.38;;;16.17;51.92
30302;BME280;17111;52.130;5.028;2023-02-03T01:12:49;102562.22;;;16.18;52.26
30302;BME280;17111;52.130;5.028;2023-02-03T01:15:16;102565.88;;;16.17;52.72
30302;BME280;17111;52.130;5.028;2023-02-03T01:17:42;102564.03;;;16.17;52.70
30302;BME280;17111;52.130;5.028;2023-02-03T01:20:09;102563.19;;;16.17;52.20
30302;BME280;17111;52.130;5.028;2023-02-03T01:22:39;102558.69;;;16.17;52.43
30302;BME280;17111;52.130;5.028;2023-02-03T01:25:06;102568.53;;;16.17;52.43
30302;BME280;17111;52.130;5.028;2023-02-03T01:27:32;102553.41;;;16.16;51.85
30302;BME280;17111;52.130;5.028;2023-02-03T01:29:59;102547.13;;;16.17;52.28
30302;BME280;17111;52.130;5.028;2023-02-03T01:32:26;102535.59;;;16.16;51.89
30302;BME280;17111;52.130;5.028;2023-02-03T01:34:52;102526.66;;;16.16;51.85
30302;BME280;17111;52.130;5.028;2023-02-03T01:37:19;102515.03;;;16.17;51.52
30302;BME280;17111;52.130;5.028;2023-02-03T01:39:45;102529.34;;;16.16;52.22
30302;BME280;17111;52.130;5.028;2023-02-03T01:42:13;102529.34;;;16.16;51.41
30302;BME280;17111;52.130;5.028;2023-02-03T01:44:48;102520.47;;;16.15;51.90
30302;BME280;17111;52.130;5.028;2023-02-03T01:47:41;102530.41;;;16.13;52.04
30302;BME280;17111;52.130;5.028;2023-02-03T01:50:26;102548.19;;;16.14;52.49
30302;BME280;17111;52.130;5.028;2023-02-03T01:53:00;102540.03;;;16.16;52.23
30302;BME280;17111;52.130;5.028;2023-02-03T01:55:35;102533.00;;;16.15;52.20
30302;BME280;17111;52.130;5.028;2023-02-03T01:58:24;102529.34;;;16.16;52.41
30302;BME280;17111;52.130;5.028;2023-02-03T02:00:52;102517.59;;;16.18;52.37
30302;BME280;17111;52.130;5.028;2023-02-03T02:03:24;102505.19;;;16.17;52.32
30302;BME280;17111;52.130;5.028;2023-02-03T02:05:57;102523.06;;;16.17;52.33
30302;BME280;17111;52.130;5.028;2023-02-03T02:08:25;102502.50;;;16.17;52.41
30302;BME280;17111;52.130;5.028;2023-02-03T02:10:52;102503.38;;;16.18;52.22
30302;BME280;17111;52.130;5.028;2023-02-03T02:13:20;102504.22;;;16.18;52.44
30302;BME280;17111;52.130;5.028;2023-02-03T02:16:07;102498.03;;;16.18;52.12
30302;BME280;17111;52.130;5.028;2023-02-03T02:22:02;102498.88;;;16.18;51.80
30302;BME280;17111;52.130;5.028;2023-02-03T02:44:05;102512.25;;;16.18;52.58
30302;BME280;17111;52.130;5.028;2023-02-03T02:46:40;102518.44;;;16.19;52.61
30302;BME280;17111;52.130;5.028;2023-02-03T02:49:15;102507.75;;;16.19;52.01
30302;BME280;17111;52.130;5.028;2023-02-03T02:51:45;102498.75;;;16.20;52.66
30302;BME280;17111;52.130;5.028;2023-02-03T02:54:16;102497.91;;;16.19;52.02
30302;BME280;17111;52.130;5.028;2023-02-03T02:56:47;102497.91;;;16.19;52.19
30302;BME280;17111;52.130;5.028;2023-02-03T02:59:14;102494.38;;;16.19;52.58
30302;BME280;17111;52.130;5.028;2023-02-03T03:01:41;102489.03;;;16.19;51.87
30302;BME280;17111;52.130;5.028;2023-02-03T03:04:10;102477.34;;;16.20;52.47
30302;BME280;17111;52.130;5.028;2023-02-03T03:06:42;102481.84;;;16.19;52.94
30302;BME280;17111;52.130;5.028;2023-02-03T03:09:15;102492.56;;;16.19;52.63
30302;BME280;17111;52.130;5.028;2023-02-03T03:11:52;102498.75;;;16.20;52.51
30302;BME280;17111;52.130;5.028;2023-02-03T03:14:22;102499.53;;;16.22;52.79
30302;BME280;17111;52.130;5.028;2023-02-03T03:16:58;102482.63;;;16.21;52.03
30302;BME280;17111;52.130;5.028;2023-02-03T03:19:31;102492.34;;;16.22;52.53
30302;BME280;17111;52.130;5.028;2023-02-03T03:22:01;102489.69;;;16.22;52.77
30302;BME280;17111;52.130;5.028;2023-02-03T03:24:50;102500.38;;;16.22;52.62
30302;BME280;17111;52.130;5.028;2023-02-03T03:27:24;102501.16;;;16.24;52.15
30302;BME280;17111;52.130;5.028;2023-02-03T03:30:01;102494.91;;;16.24;52.10
30302;BME280;17111;52.130;5.028;2023-02-03T03:32:28;102487.78;;;16.24;52.23
30302;BME280;17111;52.130;5.028;2023-02-03T03:34:59;102476.09;;;16.25;52.10
30302;BME280;17111;52.130;5.028;2023-02-03T03:37:43;102497.59;;;16.24;52.07
30302;BME280;17111;52.130;5.028;2023-02-03T03:40:11;102487.00;;;16.22;52.08
30302;BME280;17111;52.130;5.028;2023-02-03T03:42:50;102493.03;;;16.26;51.85
30302;BME280;17111;52.130;5.028;2023-02-03T03:45:27;102484.03;;;16.27;52.11
30302;BME280;17111;52.130;5.028;2023-02-03T03:48:05;102498.38;;;16.26;51.81
30302;BME280;17111;52.130;5.028;2023-02-03T03:50:37;102479.75;;;16.24;52.28
30302;BME280;17111;52.130;5.028;2023-02-03T03:53:07;102509.91;;;16.26;52.12
30302;BME280;17111;52.130;5.028;2023-02-03T03:55:37;102506.41;;;16.26;52.10
30302;BME280;17111;52.130;5.028;2023-02-03T03:58:12;102507.38;;;16.25;53.07
30302;BME280;17111;52.130;5.028;2023-02-03T04:00:41;102496.66;;;16.25;52.42
30302;BME280;17111;52.130;5.028;2023-02-03T04:03:24;102510.97;;;16.24;52.53
30302;BME280;17111;52.130;5.028;2023-02-03T04:05:53;102512.72;;;16.25;52.87
30302;BME280;17111;52.130;5.028;2023-02-03T04:08:20;102506.50;;;16.24;52.62
30302;BME280;17111;52.130;5.028;2023-02-03T04:10:46;102510.03;;;16.25;51.77
30302;BME280;17111;52.130;5.028;2023-02-03T04:13:13;102502.94;;;16.24;52.11
30302;BME280;17111;52.130;5.028;2023-02-03T04:15:41;102512.72;;;16.25;52.82
30302;BME280;17111;52.130;5.028;2023-02-03T04:18:10;102517.22;;;16.24;52.06
30302;BME280;17111;52.130;5.028;2023-02-03T04:20:39;102505.63;;;16.24;52.27
30302;BME280;17111;52.130;5.028;2023-02-03T04:23:06;102500.28;;;16.24;53.02
30302;BME280;17111;52.130;5.028;2023-02-03T04:25:32;102498.47;;;16.24;51.94
30302;BME280;17111;52.130;5.028;2023-02-03T04:27:59;102493.97;;;16.25;51.93
30302;BME280;17111;52.130;5.028;2023-02-03T04:30:26;102500.19;;;16.25;52.19
30302;BME280;17111;52.130;5.028;2023-02-03T04:32:53;102502.00;;;16.25;52.94
30302;BME280;17111;52.130;5.028;2023-02-03T04:35:20;102488.63;;;16.25;52.11
30302;BME280;17111;52.130;5.028;2023-02-03T04:37:46;102505.63;;;16.24;52.69
30302;BME280;17111;52.130;5.028;2023-02-03T04:40:13;102524.28;;;16.25;52.76
30302;BME280;17111;52.130;5.028;2023-02-03T04:42:40;102520.81;;;16.23;52.75
30302;BME280;17111;52.130;5.028;2023-02-03T04:45:08;102522.56;;;16.24;52.65
30302;BME280;17111;52.130;5.028;2023-02-03T04:47:35;102511.84;;;16.24;52.13
30302;BME280;17111;52.130;5.028;2023-02-03T04:50:02;102519.88;;;16.24;51.70
30302;BME280;17111;52.130;5.028;2023-02-03T04:52:29;102511.84;;;16.24;51.70
30302;BME280;17111;52.130;5.028;2023-02-03T04:54:55;102512.78;;;16.23;52.87
30302;BME280;17111;52.130;5.028;2023-02-03T04:57:22;102507.38;;;16.25;52.69
30302;BME280;17111;52.130;5.028;2023-02-03T04:59:49;102520.75;;;16.25;52.28
30302;BME280;17111;52.130;5.028;2023-02-03T05:02:15;102529.63;;;16.25;52.39
30302;BME280;17111;52.130;5.028;2023-02-03T05:04:42;102517.94;;;16.26;52.17
30302;BME280;17111;52.130;5.028;2023-02-03T05:07:08;102511.75;;;16.26;51.89
30302;BME280;17111;52.130;5.028;2023-02-03T05:09:35;102501.91;;;16.26;52.23
30302;BME280;17111;52.130;5.028;2023-02-03T05:12:02;102489.50;;;16.25;52.63
30302;BME280;17111;52.130;5.028;2023-02-03T05:14:28;102504.47;;;16.28;52.29
30302;BME280;17111;52.130;5.028;2023-02-03T05:16:55;102501.78;;;16.28;52.54
30302;BME280;17111;52.130;5.028;2023-02-03T05:19:21;102517.84;;;16.28;52.24
30302;BME280;17111;52.130;5.028;2023-02-03T05:21:48;102522.34;;;16.27;52.82
30302;BME280;17111;52.130;5.028;2023-02-03T05:24:14;102533.88;;;16.28;52.41
30302;BME280;17111;52.130;5.028;2023-02-03T05:26:41;102529.44;;;16.28;51.78
30302;BME280;17111;52.130;5.028;2023-02-03T05:29:07;102525.00;;;16.27;52.77
30302;BME280;17111;52.130;5.028;2023-02-03T05:31:35;102522.34;;;16.27;52.94
30302;BME280;17111;52.130;5.028;2023-02-03T05:34:01;102513.38;;;16.28;52.41
30302;BME280;17111;52.130;5.028;2023-02-03T05:36:28;102521.47;;;16.27;52.26
30302;BME280;17111;52.130;5.028;2023-02-03T05:38:55;102517.94;;;16.26;53.04
30302;BME280;17111;52.130;5.028;2023-02-03T05:41:21;102509.91;;;16.26;52.12
30302;BME280;17111;52.130;5.028;2023-02-03T05:44:06;102516.13;;;16.27;52.76
30302;BME280;17111;52.130;5.028;2023-02-03T05:46:33;102516.13;;;16.27;52.83
30302;BME280;17111;52.130;5.028;2023-02-03T05:48:59;102521.47;;;16.27;52.50
30302;BME280;17111;52.130;5.028;2023-02-03T05:51:26;102525.00;;;16.27;52.62
30302;BME280;17111;52.130;5.028;2023-02-03T05:53:53;102525.97;;;16.26;52.17
30302;BME280;17111;52.130;5.028;2023-02-03T05:56:20;102520.63;;;16.26;52.01
30302;BME280;17111;52.130;5.028;2023-02-03T05:58:46;102520.63;;;16.26;51.77
30302;BME280;17111;52.130;5.028;2023-02-03T06:01:13;102516.25;;;16.25;52.63
30302;BME280;17111;52.130;5.028;2023-02-03T06:03:40;102514.41;;;16.26;52.13
30302;BME280;17111;52.130;5.028;2023-02-03T06:06:09;102519.78;;;16.26;51.95
30302;BME280;17111;52.130;5.028;2023-02-03T06:08:36;102502.00;;;16.25;51.71
30302;BME280;17111;52.130;5.028;2023-02-03T06:11:02;102524.28;;;16.25;52.73
30302;BME280;17111;52.130;5.028;2023-02-03T06:13:29;102516.25;;;16.25;51.67
30302;BME280;17111;52.130;5.028;2023-02-03T06:15:56;102519.78;;;16.26;52.58
30302;BME280;17111;52.130;5.028;2023-02-03T06:18:22;102508.22;;;16.25;52.50
30302;BME280;17111;52.130;5.028;2023-02-03T06:20:49;102517.22;;;16.24;52.91
30302;BME280;17111;52.130;5.028;2023-02-03T06:23:16;102530.59;;;16.24;51.94
30302;BME280;17111;52.130;5.028;2023-02-03T06:25:46;102537.66;;;16.25;52.42
30302;BME280;17111;52.130;5.028;2023-02-03T06:28:13;102534.13;;;16.25;51.96
30302;BME280;17111;52.130;5.028;2023-02-03T06:30:40;102532.28;;;16.25;52.70
30302;BME280;17111;52.130;5.028;2023-02-03T06:33:07;102535.81;;;16.26;52.36
30302;BME280;17111;52.130;5.028;2023-02-03T06:35:33;102534.97;;;16.25;52.00
30302;BME280;17111;52.130;5.028;2023-02-03T06:38:00;102532.28;;;16.25;52.82
30302;BME280;17111;52.130;5.028;2023-02-03T06:40:26;102538.50;;;16.26;52.62
30302;BME280;17111;52.130;5.028;2023-02-03T06:42:54;102533.16;;;16.26;51.62
30302;BME280;17111;52.130;5.028;2023-02-03T06:45:20;102542.88;;;16.27;52.28
30302;BME280;17111;52.130;5.028;2023-02-03T06:47:47;102534.00;;;16.26;52.92
30302;BME280;17111;52.130;5.028;2023-02-03T06:50:14;102550.84;;;16.28;51.93
30302;BME280;17111;52.130;5.028;2023-02-03T06:52:41;102547.28;;;16.28;52.55
30302;BME280;17111;52.130;5.028;2023-02-03T06:55:08;102550.84;;;16.28;52.55
30302;BME280;17111;52.130;5.028;2023-02-03T06:57:34;102562.38;;;16.29;52.71
30302;BME280;17111;52.130;5.028;2023-02-03T07:00:02;102561.53;;;16.28;52.37
30302;BME280;17111;52.130;5.028;2023-02-03T07:02:28;102566.88;;;16.28;52.22
30302;BME280;17111;52.130;5.028;2023-02-03T07:04:55;102576.63;;;16.29;52.59
30302;BME280;17111;52.130;5.028;2023-02-03T07:07:21;102571.16;;;16.31;52.10
30302;BME280;17111;52.130;5.028;2023-02-03T07:09:48;102581.97;;;16.29;52.07
30302;BME280;17111;52.130;5.028;2023-02-03T07:12:15;102583.78;;;16.29;52.43
30302;BME280;17111;52.130;5.028;2023-02-03T07:14:41;102582.06;;;16.28;52.09
30302;BME280;17111;52.130;5.028;2023-02-03T07:17:08;102581.97;;;16.29;52.89
30302;BME280;17111;52.130;5.028;2023-02-03T07:19:34;102582.94;;;16.28;52.60
30302;BME280;17111;52.130;5.028;2023-02-03T07:22:01;102576.69;;;16.28;52.88
30302;BME280;17111;52.130;5.028;2023-02-03T07:24:27;102586.47;;;16.29;52.69
30302;BME280;17111;52.130;5.028;2023-02-03T07:26:54;102578.53;;;16.27;52.04
30302;BME280;17111;52.130;5.028;2023-02-03T07:29:20;102586.56;;;16.27;52.47
30302;BME280;17111;52.130;5.028;2023-02-03T07:31:47;102591.91;;;16.27;52.21
30302;BME280;17111;52.130;5.028;2023-02-03T07:34:13;102583.88;;;16.27;51.77
30302;BME280;17111;52.130;5.028;2023-02-03T07:36:40;102582.16;;;16.26;52.43
30302;BME280;17111;52.130;5.028;2023-02-03T07:39:07;102588.38;;;16.27;52.05
30302;BME280;17111;52.130;5.028;2023-02-03T07:41:33;102581.19;;;16.27;52.00
30302;BME280;17111;52.130;5.028;2023-02-03T07:44:00;102589.22;;;16.27;51.81
30302;BME280;17111;52.130;5.028;2023-02-03T07:46:26;102581.19;;;16.27;52.60
30302;BME280;17111;52.130;5.028;2023-02-03T07:48:53;102590.19;;;16.26;52.62
30302;BME280;17111;52.130;5.028;2023-02-03T07:51:19;102595.44;;;16.28;52.46
30302;BME280;17111;52.130;5.028;2023-02-03T07:53:46;102594.56;;;16.27;52.14
30302;BME280;17111;52.130;5.028;2023-02-03T07:56:12;102599.06;;;16.27;52.17
30302;BME280;17111;52.130;5.028;2023-02-03T07:58:39;102599.94;;;16.27;52.94
30302;BME280;17111;52.130;5.028;2023-02-03T08:01:14;102594.69;;;16.26;51.96
30302;BME280;17111;52.130;5.028;2023-02-03T08:03:42;102602.59;;;16.27;51.78
30302;BME280;17111;52.130;5.028;2023-02-03T08:06:09;102602.59;;;16.27;52.89
30302;BME280;17111;52.130;5.028;2023-02-03T08:08:35;102595.44;;;16.28;52.15
30302;BME280;17111;52.130;5.028;2023-02-03T08:11:02;102614.16;;;16.28;52.15
30302;BME280;17111;52.130;5.028;2023-02-03T08:13:29;102607.94;;;16.27;52.40
30302;BME280;17111;52.130;5.028;2023-02-03T08:15:55;102618.66;;;16.27;52.57
30302;BME280;17111;52.130;5.028;2023-02-03T08:18:22;102618.56;;;16.29;52.33
30302;BME280;17111;52.130;5.028;2023-02-03T08:20:49;102626.69;;;16.27;51.95
30302;BME280;17111;52.130;5.028;2023-02-03T08:23:15;102637.31;;;16.29;52.47
30302;BME280;17111;52.130;5.028;2023-02-03T08:25:42;102622.09;;;16.29;52.31
30302;BME280;17111;52.130;5.028;2023-02-03T08:28:08;102630.13;;;16.29;51.74
30302;BME280;17111;52.130;5.028;2023-02-03T08:30:35;102625.63;;;16.30;52.01
30302;BME280;17111;52.130;5.028;2023-02-03T08:33:02;102626.59;;;16.29;52.55
30302;BME280;17111;52.130;5.028;2023-02-03T08:35:28;102635.38;;;16.31;52.60
30302;BME280;17111;52.130;5.028;2023-02-03T08:37:55;102625.53;;;16.32;52.60
30302;BME280;17111;52.130;5.028;2023-02-03T08:40:22;102642.44;;;16.32;51.72
30302;BME280;17111;52.130;5.028;2023-02-03T08:42:48;102651.25;;;16.34;52.10
30302;BME280;17111;52.130;5.028;2023-02-03T08:45:15;102639.69;;;16.34;51.57
30302;BME280;17111;52.130;5.028;2023-02-03T08:47:41;102646.75;;;16.35;52.26
30302;BME280;17111;52.130;5.028;2023-02-03T08:50:08;102637.75;;;16.36;52.14
30302;BME280;17111;52.130;5.028;2023-02-03T08:52:36;102640.44;;;16.36;52.63
30302;BME280;17111;52.130;5.028;2023-02-03T08:55:03;102639.50;;;16.37;51.92
30302;BME280;17111;52.130;5.028;2023-02-03T08:57:34;102645.69;;;16.37;52.30
30302;BME280;17111;52.130;5.028;2023-02-03T09:00:03;102656.28;;;16.39;52.12
30302;BME280;17111;52.130;5.028;2023-02-03T09:02:30;102651.78;;;16.39;52.22
30302;BME280;17111;52.130;5.028;2023-02-03T09:04:57;102656.22;;;16.40;52.18
30302;BME280;17111;52.130;5.028;2023-02-03T09:07:24;102659.75;;;16.41;52.38
30302;BME280;17111;52.130;5.028;2023-02-03T09:09:51;102663.28;;;16.41;51.98
30302;BME280;17111;52.130;5.028;2023-02-03T09:12:18;102662.41;;;16.41;52.04
30302;BME280;17111;52.130;5.028;2023-02-03T09:14:44;102665.00;;;16.42;52.18
30302;BME280;17111;52.130;5.028;2023-02-03T09:17:11;102673.88;;;16.43;51.91
30302;BME280;17111;52.130;5.028;2023-02-03T09:19:37;102674.72;;;16.43;51.46
30302;BME280;17111;52.130;5.028;2023-02-03T09:22:04;102668.44;;;16.44;52.08
30302;BME280;17111;52.130;5.028;2023-02-03T09:24:31;102689.84;;;16.44;52.33
30302;BME280;17111;52.130;5.028;2023-02-03T09:26:57;102682.69;;;16.45;52.50
30302;BME280;17111;52.130;5.028;2023-02-03T09:29:26;102671.00;;;16.46;52.38
30302;BME280;17111;52.130;5.028;2023-02-03T09:31:53;102670.03;;;16.47;52.10
30302;BME280;17111;52.130;5.028;2023-02-03T09:34:20;102674.44;;;16.48;52.26
30302;BME280;17111;52.130;5.028;2023-02-03T09:36:47;102670.81;;;16.49;52.52
30302;BME280;17111;52.130;5.028;2023-02-03T09:39:14;102680.56;;;16.50;51.72
30302;BME280;17111;52.130;5.028;2023-02-03T09:41:55;102689.56;;;16.49;51.69
30302;BME280;17111;52.130;5.028;2023-02-03T09:44:49;102686.88;;;16.49;51.93
30302;BME280;17111;52.130;5.028;2023-02-03T09:47:23;102692.97;;;16.51;51.83
30302;BME280;17111;52.130;5.028;2023-02-03T09:50:00;102701.97;;;16.50;51.97
30302;BME280;17111;52.130;5.028;2023-02-03T09:52:37;102713.53;;;16.50;52.26
30302;BME280;17111;52.130;5.028;2023-02-03T09:55:33;102704.66;;;16.50;52.23
30302;BME280;17111;52.130;5.028;2023-02-03T09:58:14;102704.53;;;16.51;51.91
30302;BME280;17111;52.130;5.028;2023-02-03T10:00:45;102720.41;;;16.54;51.98
30302;BME280;17111;52.130;5.028;2023-02-03T10:03:44;102705.38;;;16.52;52.23
30302;BME280;17111;52.130;5.028;2023-02-03T10:09:06;102710.66;;;16.53;51.92
30302;BME280;17111;52.130;5.028;2023-02-03T10:17:30;102708.66;;;16.57;52.07
30302;BME280;17111;52.130;5.028;2023-02-03T10:20:34;102722.97;;;16.56;52.45
30302;BME280;17111;52.130;5.028;2023-02-03T10:23:10;102726.44;;;16.58;52.63
30302;BME280;17111;52.130;5.028;2023-02-03T10:25:50;102721.94;;;16.59;51.62
30302;BME280;17111;52.130;5.028;2023-02-03T10:28:26;102721.94;;;16.59;52.37
30302;BME280;17111;52.130;5.028;2023-02-03T10:30:56;102718.28;;;16.60;51.99
30302;BME280;17111;52.130;5.028;2023-02-03T10:33:28;102719.16;;;16.60;51.96
30302;BME280;17111;52.130;5.028;2023-02-03T10:36:20;102744.19;;;16.59;51.82
30302;BME280;17111;52.130;5.028;2023-02-03T10:41:18;102736.94;;;16.61;51.61
30302;BME280;17111;52.130;5.028;2023-02-03T10:43:49;102739.63;;;16.61;51.90
30302;BME280;17111;52.130;5.028;2023-02-03T10:46:31;102740.66;;;16.59;51.35
30302;BME280;17111;52.130;5.028;2023-02-03T10:48:59;102749.47;;;16.61;52.11
30302;BME280;17111;52.130;5.028;2023-02-03T10:51:28;102750.34;;;16.61;51.73
30302;BME280;17111;52.130;5.028;2023-02-03T10:53:59;102753.00;;;16.61;52.49
30302;BME280;17111;52.130;5.028;2023-02-03T10:56:30;102735.13;;;16.62;52.11
30302;BME280;17111;52.130;5.028;2023-02-03T10:58:59;102744.00;;;16.62;52.33
30302;BME280;17111;52.130;5.028;2023-02-03T11:01:44;102744.13;;;16.61;52.29
30302;BME280;17111;52.130;5.028;2023-02-03T11:04:31;102748.50;;;16.62;51.91
30302;BME280;17111;52.130;5.028;2023-02-03T11:07:00;102757.28;;;16.64;52.16
30302;BME280;17111;52.130;5.028;2023-02-03T11:09:31;102751.09;;;16.63;52.20
30302;BME280;17111;52.130;5.028;2023-02-03T11:12:15;102748.41;;;16.63;51.88
30302;BME280;17111;52.130;5.028;2023-02-03T11:14:45;102758.06;;;16.66;51.90
30302;BME280;17111;52.130;5.028;2023-02-03T11:17:31;102763.59;;;16.63;51.62
30302;BME280;17111;52.130;5.028;2023-02-03T11:20:13;102756.34;;;16.65;51.73
30302;BME280;17111;52.130;5.028;2023-02-03T11:22:42;102748.22;;;16.66;51.80
30302;BME280;17111;52.130;5.028;2023-02-03T11:25:26;102745.66;;;16.65;51.92
30302;BME280;17111;52.130;5.028;2023-02-03T11:27:55;102747.34;;;16.66;51.96
30302;BME280;17111;52.130;5.028;2023-02-03T11:30:28;102755.28;;;16.67;52.29
30302;BME280;17111;52.130;5.028;2023-02-03T11:32:59;102764.28;;;16.66;52.12
30302;BME280;17111;52.130;5.028;2023-02-03T11:35:28;102756.13;;;16.68;51.76
30302;BME280;17111;52.130;5.028;2023-02-03T11:37:59;102754.34;;;16.68;52.12
30302;BME280;17111;52.130;5.028;2023-02-03T11:40:28;102751.66;;;16.68;52.30
30302;BME280;17111;52.130;5.028;2023-02-03T11:53:15;102737.31;;;16.69;51.44
30302;BME280;17111;52.130;5.028;2023-02-03T12:07:10;102751.56;;;16.70;51.71
30302;BME280;17111;52.130;5.028;2023-02-03T12:09:55;102744.38;;;16.70;51.20
30302;BME280;17111;52.130;5.028;2023-02-03T12:13:32;102750.59;;;16.71;51.95
30302;BME280;17111;52.130;5.028;2023-02-03T12:15:39;102752.31;;;16.72;51.50
30302;BME280;17111;52.130;5.028;2023-02-03T12:23:53;102761.41;;;16.69;51.88
30302;BME280;17111;52.130;5.028;2023-02-03T12:26:39;102757.88;;;16.69;51.36
30302;BME280;17111;52.130;5.028;2023-02-03T12:29:14;102764.09;;;16.69;51.33
30302;BME280;17111;52.130;5.028;2023-02-03T12:31:47;102765.06;;;16.68;51.56
30302;BME280;17111;52.130;5.028;2023-02-03T12:34:28;102769.53;;;16.68;52.12
30302;BME280;17111;52.130;5.028;2023-02-03T12:37:21;102770.50;;;16.67;52.15
30302;BME280;17111;52.130;5.028;2023-02-03T12:39:54;102783.03;;;16.66;51.72
30302;BME280;17111;52.130;5.028;2023-02-03T12:42:42;102782.16;;;16.66;51.48
30302;BME280;17111;52.130;5.028;2023-02-03T12:45:19;102770.59;;;16.65;51.51
30302;BME280;17111;52.130;5.028;2023-02-03T12:47:54;102783.97;;;16.65;51.51
30302;BME280;17111;52.130;5.028;2023-02-03T12:53:04;102794.78;;;16.64;52.18
30302;BME280;17111;52.130;5.028;2023-02-03T12:55:49;102799.38;;;16.62;51.66
30302;BME280;17111;52.130;5.028;2023-02-03T12:58:23;102803.66;;;16.64;51.79
30302;BME280;17111;52.130;5.028;2023-02-03T13:00:53;102808.38;;;16.61;52.45
30302;BME280;17111;52.130;5.028;2023-02-03T13:03:34;102808.25;;;16.62;51.73
30302;BME280;17111;52.130;5.028;2023-02-03T13:09:04;102814.59;;;16.61;52.23
30302;BME280;17111;52.130;5.028;2023-02-03T13:11:45;102817.16;;;16.63;52.04
30302;BME280;17111;52.130;5.028;2023-02-03T13:14:14;102834.25;;;16.60;52.34
30302;BME280;17111;52.130;5.028;2023-02-03T13:16:48;102828.66;;;16.65;51.60
30302;BME280;17111;52.130;5.028;2023-02-03T13:19:25;102840.22;;;16.65;52.21
30302;BME280;17111;52.130;5.028;2023-02-03T13:21:52;102838.56;;;16.63;51.53
30302;BME280;17111;52.130;5.028;2023-02-03T13:24:22;102838.28;;;16.67;51.89
30302;BME280;17111;52.130;5.028;2023-02-03T13:26:58;102835.59;;;16.67;51.75
30302;BME280;17111;52.130;5.028;2023-02-03T13:29:57;102838.28;;;16.67;52.05
30302;BME280;17111;52.130;5.028;2023-02-03T13:32:55;102843.56;;;16.69;51.86
30302;BME280;17111;52.130;5.028;2023-02-03T13:41:05;102848.69;;;16.72;52.27
30302;BME280;17111;52.130;5.028;2023-02-03T13:43:37;102845.13;;;16.73;51.53
30302;BME280;17111;52.130;5.028;2023-02-03T13:46:07;102839.78;;;16.73;51.49
30302;BME280;17111;52.130;5.028;2023-02-03T13:48:45;102831.63;;;16.74;52.02
30302;BME280;17111;52.130;5.028;2023-02-03T13:51:16;102839.66;;;16.74;52.01
30302;BME280;17111;52.130;5.028;2023-02-03T13:53:44;102838.69;;;16.75;51.71
30302;BME280;17111;52.130;5.028;2023-02-03T13:56:25;102835.16;;;16.75;51.72
30302;BME280;17111;52.130;5.028;2023-02-03T13:59:03;102846.72;;;16.75;51.42
30302;BME280;17111;52.130;5.028;2023-02-03T14:01:39;102836.00;;;16.75;52.21
30302;BME280;17111;52.130;5.028;2023-02-03T14:06:55;102847.59;;;16.76;51.78
30302;BME280;17111;52.130;5.028;2023-02-03T14:12:20;102844.22;;;16.72;52.33
30302;BME280;17111;52.130;5.028;2023-02-03T14:14:59;102844.16;;;16.74;51.70
30302;BME280;17111;52.130;5.028;2023-02-03T14:20:00;102840.50;;;16.75;51.56
30302;BME280;17111;52.130;5.028;2023-02-03T14:22:27;102850.38;;;16.74;51.63
30302;BME280;17111;52.130;5.028;2023-02-03T14:24:55;102862.03;;;16.73;51.63
30302;BME280;17111;52.130;5.028;2023-02-03T14:27:27;102868.25;;;16.74;52.54
30302;BME280;17111;52.130;5.028;2023-02-03T14:30:21;102868.41;;;16.71;52.57